sensor_id;sensor_type;location;lat;lon;timestamp;temperature;humidity
29731;DHT22;16639;51.488;0.152;2023-08-17T00:00:51;17.60;99.90
29731;DHT22;16639;51.488;0.152;2023-08-17T00:03:19;17.60;99.90
29731;DHT22;16639;51.488;0.152;2023-08-17T00:05:46;17.60;99.90
29731;DHT22;16639;51.488;0.152;2023-08-17T00:08:14;17.60;99.90
29731;DHT22;16639;51.488;0.152;2023-08-17T00:10:41;17.50;99.90
29731;DHT22;16639;51.488;0.152;2023-08-17T00:13:09;17.50;99.90
29731;DHT22;16639;51.488;0.152;2023-08-17T00:15:36;17.20;99.90
29731;DHT22;16639;51.488;0.152;2023-08-17T00:18:04;17.50;99.90
29731;DHT22;16639;51.488;0.152;2023-08-17T00:20:31;17.50;99.90
29731;DHT22;16639;51.488;0.152;2023-08-17T00:22:59;17.50;99.90
29731;DHT22;16639;51.488;0.152;2023-08-17T00:25:26;17.50;99.90
29731;DHT22;16639;51.488;0.152;2023-08-17T00:27:54;17.50;99.90
29731;DHT22;16639;51.488;0.152;2023-08-17T00:30:21;17.50;99.90
29731;DHT22;16639;51.488;0.152;2023-08-17T00:32:49;17.60;99.90
29731;DHT22;16639;51.488;0.152;2023-08-17T00:35:16;17.60;99.90
29731;DHT22;16639;51.488;0.152;2023-08-17T00:37:44;17.60;99.90
29731;DHT22;16639;51.488;0.152;2023-08-17T00:40:11;17.60;99.90
29731;DHT22;16639;51.488;0.152;2023-08-17T00:42:39;17.60;99.90
29731;DHT22;16639;51.488;0.152;2023-08-17T00:45:07;17.60;99.90
29731;DHT22;16639;51.488;0.152;2023-08-17T00:47:34;18.70;99.90
29731;DHT22;16639;51.488;0.152;2023-08-17T00:50:02;17.70;99.90
29731;DHT22;16639;51.488;0.152;2023-08-17T00:52:32;17.70;99.90
29731;DHT22;16639;51.488;0.152;2023-08-17T00:55:01;17.60;99.90
29731;DHT22;16639;51.488;0.152;2023-08-17T00:57:30;17.60;99.90
29731;DHT22;16639;51.488;0.152;2023-08-17T00:59:58;17.60;99.90
29731;DHT22;16639;51.488;0.152;2023-08-17T01:02:32;17.60;99.90
29731;DHT22;16639;51.488;0.152;2023-08-17T01:05:00;17.60;99.90
29731;DHT22;16639;51.488;0.152;2023-08-17T01:07:28;17.60;99.90
29731;DHT22;16639;51.488;0.152;2023-08-17T01:09:56;17.60;99.90
29731;DHT22;16639;51.488;0.152;2023-08-17T01:15:08;17.60;99.90
29731;DHT22;16639;51.488;0.152;2023-08-17T01:17:54;17.60;99.90
29731;DHT22;16639;51.488;0.152;2023-08-17T01:20:24;17.60;99.90
29731;DHT22;16639;51.488;0.152;2023-08-17T01:22:55;17.60;99.90
29731;DHT22;16639;51.488;0.152;2023-08-17T01:25:25;17.70;99.90
29731;DHT22;16639;51.488;0.152;2023-08-17T01:27:53;17.80;99.90
29731;DHT22;16639;51.488;0.152;2023-08-17T01:30:20;17.70;99.90
29731;DHT22;16639;51.488;0.152;2023-08-17T01:32:56;17.70;99.90
29731;DHT22;16639;51.488;0.152;2023-08-17T01:35:46;17.70;99.90
29731;DHT22;16639;51.488;0.152;2023-08-17T01:38:18;17.70;99.90
29731;DHT22;16639;51.488;0.152;2023-08-17T01:40:48;17.70;99.90
29731;DHT22;16639;51.488;0.152;2023-08-17T01:43:17;17.70;99.90
29731;DHT22;16639;51.488;0.152;2023-08-17T01:45:45;17.70;99.90
29731;DHT22;16639;51.488;0.152;2023-08-17T01:48:13;17.70;99.90
29731;DHT22;16639;51.488;0.152;2023-08-17T01:50:41;17.70;99.90
29731;DHT22;16639;51.488;0.152;2023-08-17T01:53:08;17.70;99.90
29731;DHT22;16639;51.488;0.152;2023-08-17T01:55:37;17.70;99.90
29731;DHT22;16639;51.488;0.152;2023-08-17T01:58:04;17.80;99.90
29731;DHT22;16639;51.488;0.152;2023-08-17T02:00:32;18.10;99.90
29731;DHT22;16639;51.488;0.152;2023-08-17T02:02:59;17.80;99.90
29731;DHT22;16639;51.488;0.152;2023-08-17T02:05:26;17.80;99.90
29731;DHT22;16639;51.488;0.152;2023-08-17T02:07:56;17.80;99.90
29731;DHT22;16639;51.488;0.152;2023-08-17T02:10:23;17.80;99.90
29731;DHT22;16639;51.488;0.152;2023-08-17T02:12:51;17.80;99.90
29731;DHT22;16639;51.488;0.152;2023-08-17T02:15:27;17.90;99.90
29731;DHT22;16639;51.488;0.152;2023-08-17T02:17:56;17.90;99.90
29731;DHT22;16639;51.488;0.152;2023-08-17T02:20:24;17.90;99.90
29731;DHT22;16639;51.488;0.152;2023-08-17T02:22:51;17.90;99.90
29731;DHT22;16639;51.488;0.152;2023-08-17T02:25:18;17.90;99.90
29731;DHT22;16639;51.488;0.152;2023-08-17T02:27:46;17.90;99.90
29731;DHT22;16639;51.488;0.152;2023-08-17T02:30:13;17.90;99.90
29731;DHT22;16639;51.488;0.152;2023-08-17T02:32:41;18.20;99.90
29731;DHT22;16639;51.488;0.152;2023-08-17T02:35:08;17.90;99.90
29731;DHT22;16639;51.488;0.152;2023-08-17T02:37:36;17.90;99.90
29731;DHT22;16639;51.488;0.152;2023-08-17T02:40:03;17.90;99.90
29731;DHT22;16639;51.488;0.152;2023-08-17T02:42:31;17.90;99.90
29731;DHT22;16639;51.488;0.152;2023-08-17T02:44:58;17.90;99.90
29731;DHT22;16639;51.488;0.152;2023-08-17T02:47:26;17.90;99.90
29731;DHT22;16639;51.488;0.152;2023-08-17T02:49:54;17.90;99.90
29731;DHT22;16639;51.488;0.152;2023-08-17T02:52:21;17.90;99.90
29731;DHT22;16639;51.488;0.152;2023-08-17T02:54:48;17.90;99.90
29731;DHT22;16639;51.488;0.152;2023-08-17T02:57:16;17.90;99.90
29731;DHT22;16639;51.488;0.152;2023-08-17T02:59:43;17.80;99.90
29731;DHT22;16639;51.488;0.152;2023-08-17T03:02:11;17.90;99.90
29731;DHT22;16639;51.488;0.152;2023-08-17T03:04:38;17.90;99.90
29731;DHT22;16639;51.488;0.152;2023-08-17T03:07:05;17.90;99.90
29731;DHT22;16639;51.488;0.152;2023-08-17T03:09:33;17.90;99.90
29731;DHT22;16639;51.488;0.152;2023-08-17T03:12:00;17.90;99.90
29731;DHT22;16639;51.488;0.152;2023-08-17T03:14:28;17.90;99.90
29731;DHT22;16639;51.488;0.152;2023-08-17T03:16:55;18.00;99.90
29731;DHT22;16639;51.488;0.152;2023-08-17T03:19:23;17.90;99.90
29731;DHT22;16639;51.488;0.152;2023-08-17T03:21:50;17.90;99.90
29731;DHT22;16639;51.488;0.152;2023-08-17T03:24:17;17.90;99.90
29731;DHT22;16639;51.488;0.152;2023-08-17T03:26:45;17.90;99.90
29731;DHT22;16639;51.488;0.152;2023-08-17T03:29:12;17.90;99.90
29731;DHT22;16639;51.488;0.152;2023-08-17T03:31:40;18.10;99.90
29731;DHT22;16639;51.488;0.152;2023-08-17T03:34:07;17.80;99.90
29731;DHT22;16639;51.488;0.152;2023-08-17T03:36:34;18.00;99.90
29731;DHT22;16639;51.488;0.152;2023-08-17T03:39:03;17.90;99.90
29731;DHT22;16639;51.488;0.152;2023-08-17T03:41:30;17.90;99.90
29731;DHT22;16639;51.488;0.152;2023-08-17T03:43:58;17.90;99.90
29731;DHT22;16639;51.488;0.152;2023-08-17T03:46:25;18.00;99.90
29731;DHT22;16639;51.488;0.152;2023-08-17T03:48:52;17.90;99.90
29731;DHT22;16639;51.488;0.152;2023-08-17T03:51:20;18.00;99.90
29731;DHT22;16639;51.488;0.152;2023-08-17T03:53:47;17.90;99.90
29731;DHT22;16639;51.488;0.152;2023-08-17T03:56:15;17.90;99.90
29731;DHT22;16639;51.488;0.152;2023-08-17T03:58:42;17.90;99.90
29731;DHT22;16639;51.488;0.152;2023-08-17T04:01:10;17.90;99.90
29731;DHT22;16639;51.488;0.152;2023-08-17T04:03:38;18.00;99.90
29731;DHT22;16639;51.488;0.152;2023-08-17T04:06:06;18.00;99.90
29731;DHT22;16639;51.488;0.152;2023-08-17T04:08:37;17.70;99.90
29731;DHT22;16639;51.488;0.152;2023-08-17T04:11:05;18.00;99.90
29731;DHT22;16639;51.488;0.152;2023-08-17T04:13:33;18.00;99.90
29731;DHT22;16639;51.488;0.152;2023-08-17T04:16:00;18.00;99.90
29731;DHT22;16639;51.488;0.152;2023-08-17T04:18:27;18.00;99.90
29731;DHT22;16639;51.488;0.152;2023-08-17T04:20:55;18.00;99.90
29731;DHT22;16639;51.488;0.152;2023-08-17T04:23:22;18.00;99.90
29731;DHT22;16639;51.488;0.152;2023-08-17T04:25:50;18.00;99.90
29731;DHT22;16639;51.488;0.152;2023-08-17T04:28:17;18.00;99.90
29731;DHT22;16639;51.488;0.152;2023-08-17T04:30:45;18.00;99.90
29731;DHT22;16639;51.488;0.152;2023-08-17T04:33:12;18.00;99.90
29731;DHT22;16639;51.488;0.152;2023-08-17T04:35:40;18.00;99.90
29731;DHT22;16639;51.488;0.152;2023-08-17T04:38:07;18.00;99.90
29731;DHT22;16639;51.488;0.152;2023-08-17T04:40:34;18.00;99.90
29731;DHT22;16639;51.488;0.152;2023-08-17T04:43:02;18.00;99.90
29731;DHT22;16639;51.488;0.152;2023-08-17T04:45:29;18.00;99.90
29731;DHT22;16639;51.488;0.152;2023-08-17T04:47:57;18.00;99.90
29731;DHT22;16639;51.488;0.152;2023-08-17T04:50:24;18.00;99.90
29731;DHT22;16639;51.488;0.152;2023-08-17T04:52:51;18.00;99.90
29731;DHT22;16639;51.488;0.152;2023-08-17T04:55:19;18.00;99.90
29731;DHT22;16639;51.488;0.152;2023-08-17T04:57:48;18.00;99.90
29731;DHT22;16639;51.488;0.152;2023-08-17T05:00:16;18.00;99.90
29731;DHT22;16639;51.488;0.152;2023-08-17T05:02:43;18.00;99.90
29731;DHT22;16639;51.488;0.152;2023-08-17T05:05:11;18.00;99.90
29731;DHT22;16639;51.488;0.152;2023-08-17T05:07:38;18.00;99.90
29731;DHT22;16639;51.488;0.152;2023-08-17T05:10:06;18.00;99.90
29731;DHT22;16639;51.488;0.152;2023-08-17T05:12:33;18.00;99.90
29731;DHT22;16639;51.488;0.152;2023-08-17T05:15:00;18.00;99.90
29731;DHT22;16639;51.488;0.152;2023-08-17T05:17:28;18.00;99.90
29731;DHT22;16639;51.488;0.152;2023-08-17T05:19:55;18.00;99.90
29731;DHT22;16639;51.488;0.152;2023-08-17T05:22:23;18.00;99.90
29731;DHT22;16639;51.488;0.152;2023-08-17T05:24:51;18.00;99.90
29731;DHT22;16639;51.488;0.152;2023-08-17T05:27:18;18.00;99.90
29731;DHT22;16639;51.488;0.152;2023-08-17T05:29:45;18.00;99.90
29731;DHT22;16639;51.488;0.152;2023-08-17T05:32:13;18.00;99.90
29731;DHT22;16639;51.488;0.152;2023-08-17T05:34:40;18.00;99.90
29731;DHT22;16639;51.488;0.152;2023-08-17T05:37:08;18.00;99.90
29731;DHT22;16639;51.488;0.152;2023-08-17T05:39:35;18.00;99.90
29731;DHT22;16639;51.488;0.152;2023-08-17T05:42:03;18.10;99.90
29731;DHT22;16639;51.488;0.152;2023-08-17T05:44:30;18.10;99.90
29731;DHT22;16639;51.488;0.152;2023-08-17T05:46:58;18.10;99.90
29731;DHT22;16639;51.488;0.152;2023-08-17T05:49:25;18.10;99.90
29731;DHT22;16639;51.488;0.152;2023-08-17T05:51:52;18.10;99.90
29731;DHT22;16639;51.488;0.152;2023-08-17T05:54:20;18.10;99.90
29731;DHT22;16639;51.488;0.152;2023-08-17T05:56:47;18.10;99.90
29731;DHT22;16639;51.488;0.152;2023-08-17T05:59:14;18.10;99.90
29731;DHT22;16639;51.488;0.152;2023-08-17T06:01:42;18.10;99.90
29731;DHT22;16639;51.488;0.152;2023-08-17T06:04:09;18.10;99.90
29731;DHT22;16639;51.488;0.152;2023-08-17T06:06:37;18.10;99.90
29731;DHT22;16639;51.488;0.152;2023-08-17T06:09:04;18.20;99.90
29731;DHT22;16639;51.488;0.152;2023-08-17T06:11:31;18.20;99.90
29731;DHT22;16639;51.488;0.152;2023-08-17T06:13:59;18.20;99.90
29731;DHT22;16639;51.488;0.152;2023-08-17T06:16:26;18.20;99.90
29731;DHT22;16639;51.488;0.152;2023-08-17T06:18:53;18.30;99.90
29731;DHT22;16639;51.488;0.152;2023-08-17T06:21:21;18.30;99.90
29731;DHT22;16639;51.488;0.152;2023-08-17T06:23:48;17.90;99.90
29731;DHT22;16639;51.488;0.152;2023-08-17T06:26:16;18.40;99.90
29731;DHT22;16639;51.488;0.152;2023-08-17T06:28:43;18.40;99.90
29731;DHT22;16639;51.488;0.152;2023-08-17T06:31:14;18.50;99.90
29731;DHT22;16639;51.488;0.152;2023-08-17T06:33:42;18.50;99.90
29731;DHT22;16639;51.488;0.152;2023-08-17T06:36:09;18.60;99.90
29731;DHT22;16639;51.488;0.152;2023-08-17T06:38:40;18.60;99.90
29731;DHT22;16639;51.488;0.152;2023-08-17T06:41:07;18.60;99.90
29731;DHT22;16639;51.488;0.152;2023-08-17T06:43:35;18.70;99.90
29731;DHT22;16639;51.488;0.152;2023-08-17T06:46:02;18.70;99.90
29731;DHT22;16639;51.488;0.152;2023-08-17T06:48:30;18.80;99.90
29731;DHT22;16639;51.488;0.152;2023-08-17T06:50:58;18.80;99.90
29731;DHT22;16639;51.488;0.152;2023-08-17T06:53:26;18.80;99.90
29731;DHT22;16639;51.488;0.152;2023-08-17T06:55:53;18.80;99.90
29731;DHT22;16639;51.488;0.152;2023-08-17T06:58:20;19.20;99.90
29731;DHT22;16639;51.488;0.152;2023-08-17T07:00:48;18.90;99.90
29731;DHT22;16639;51.488;0.152;2023-08-17T07:03:16;18.90;99.90
29731;DHT22;16639;51.488;0.152;2023-08-17T07:05:44;18.90;99.90
29731;DHT22;16639;51.488;0.152;2023-08-17T07:08:11;18.90;99.90
29731;DHT22;16639;51.488;0.152;2023-08-17T07:10:38;18.90;99.90
29731;DHT22;16639;51.488;0.152;2023-08-17T07:13:06;19.00;99.90
29731;DHT22;16639;51.488;0.152;2023-08-17T07:15:33;19.00;99.90
29731;DHT22;16639;51.488;0.152;2023-08-17T07:18:01;19.00;99.90
29731;DHT22;16639;51.488;0.152;2023-08-17T07:20:28;19.00;99.90
29731;DHT22;16639;51.488;0.152;2023-08-17T07:22:56;19.00;99.90
29731;DHT22;16639;51.488;0.152;2023-08-17T07:25:24;19.10;99.90
29731;DHT22;16639;51.488;0.152;2023-08-17T07:27:51;19.10;99.90
29731;DHT22;16639;51.488;0.152;2023-08-17T07:30:22;19.10;99.90
29731;DHT22;16639;51.488;0.152;2023-08-17T07:32:49;19.20;99.90
29731;DHT22;16639;51.488;0.152;2023-08-17T07:35:19;19.20;99.90
29731;DHT22;16639;51.488;0.152;2023-08-17T07:37:47;19.20;99.90
29731;DHT22;16639;51.488;0.152;2023-08-17T07:40:33;19.20;99.90
29731;DHT22;16639;51.488;0.152;2023-08-17T07:43:01;19.20;99.90
29731;DHT22;16639;51.488;0.152;2023-08-17T07:45:28;19.20;99.90
29731;DHT22;16639;51.488;0.152;2023-08-17T07:47:56;19.30;99.90
29731;DHT22;16639;51.488;0.152;2023-08-17T07:50:23;19.30;99.90
29731;DHT22;16639;51.488;0.152;2023-08-17T07:52:51;19.40;99.90
29731;DHT22;16639;51.488;0.152;2023-08-17T07:55:19;19.40;99.90
29731;DHT22;16639;51.488;0.152;2023-08-17T07:57:46;19.50;99.90
29731;DHT22;16639;51.488;0.152;2023-08-17T08:00:23;19.50;99.90
29731;DHT22;16639;51.488;0.152;2023-08-17T08:02:50;19.50;99.90
29731;DHT22;16639;51.488;0.152;2023-08-17T08:05:18;19.50;99.90
29731;DHT22;16639;51.488;0.152;2023-08-17T08:07:45;19.60;99.90
29731;DHT22;16639;51.488;0.152;2023-08-17T08:10:13;19.60;99.90
29731;DHT22;16639;51.488;0.152;2023-08-17T08:12:41;19.60;99.90
29731;DHT22;16639;51.488;0.152;2023-08-17T08:15:08;19.60;99.90
29731;DHT22;16639;51.488;0.152;2023-08-17T08:17:36;19.60;99.90
29731;DHT22;16639;51.488;0.152;2023-08-17T08:20:05;19.60;99.90
29731;DHT22;16639;51.488;0.152;2023-08-17T08:22:32;19.60;99.90
29731;DHT22;16639;51.488;0.152;2023-08-17T08:25:00;19.70;99.90
29731;DHT22;16639;51.488;0.152;2023-08-17T08:27:28;19.70;99.90
29731;DHT22;16639;51.488;0.152;2023-08-17T08:29:59;19.80;99.90
29731;DHT22;16639;51.488;0.152;2023-08-17T08:32:27;19.80;99.90
29731;DHT22;16639;51.488;0.152;2023-08-17T08:34:56;19.80;99.90
29731;DHT22;16639;51.488;0.152;2023-08-17T08:37:24;19.80;99.90
29731;DHT22;16639;51.488;0.152;2023-08-17T08:39:54;19.80;99.90
29731;DHT22;16639;51.488;0.152;2023-08-17T08:42:22;19.80;99.90
29731;DHT22;16639;51.488;0.152;2023-08-17T08:44:50;19.90;99.90
29731;DHT22;16639;51.488;0.152;2023-08-17T08:47:18;19.90;99.90
29731;DHT22;16639;51.488;0.152;2023-08-17T08:49:58;19.90;99.90
29731;DHT22;16639;51.488;0.152;2023-08-17T08:52:36;19.90;99.90
29731;DHT22;16639;51.488;0.152;2023-08-17T08:55:15;19.90;99.90
29731;DHT22;16639;51.488;0.152;2023-08-17T08:57:43;19.90;99.90
29731;DHT22;16639;51.488;0.152;2023-08-17T09:00:12;19.90;99.90
29731;DHT22;16639;51.488;0.152;2023-08-17T09:02:41;19.90;99.90
29731;DHT22;16639;51.488;0.152;2023-08-17T09:05:10;19.90;99.90
29731;DHT22;16639;51.488;0.152;2023-08-17T09:07:39;19.90;99.90
29731;DHT22;16639;51.488;0.152;2023-08-17T09:10:07;20.00;99.90
29731;DHT22;16639;51.488;0.152;2023-08-17T09:12:36;20.00;99.90
29731;DHT22;16639;51.488;0.152;2023-08-17T09:15:07;20.00;99.90
29731;DHT22;16639;51.488;0.152;2023-08-17T09:17:38;20.00;99.90
29731;DHT22;16639;51.488;0.152;2023-08-17T09:20:06;20.00;99.90
29731;DHT22;16639;51.488;0.152;2023-08-17T09:22:43;20.00;99.90
29731;DHT22;16639;51.488;0.152;2023-08-17T09:25:11;20.00;99.90
29731;DHT22;16639;51.488;0.152;2023-08-17T09:27:38;20.00;99.90
29731;DHT22;16639;51.488;0.152;2023-08-17T09:30:11;20.10;99.90
29731;DHT22;16639;51.488;0.152;2023-08-17T09:32:39;20.10;99.90
29731;DHT22;16639;51.488;0.152;2023-08-17T09:35:08;20.10;99.90
29731;DHT22;16639;51.488;0.152;2023-08-17T09:37:36;20.20;99.90
29731;DHT22;16639;51.488;0.152;2023-08-17T09:40:04;20.30;99.90
29731;DHT22;16639;51.488;0.152;2023-08-17T09:42:34;20.20;99.90
29731;DHT22;16639;51.488;0.152;2023-08-17T09:45:02;20.40;99.90
29731;DHT22;16639;51.488;0.152;2023-08-17T09:47:30;20.20;99.90
29731;DHT22;16639;51.488;0.152;2023-08-17T09:49:57;20.30;99.90
29731;DHT22;16639;51.488;0.152;2023-08-17T09:52:25;20.30;99.90
29731;DHT22;16639;51.488;0.152;2023-08-17T09:54:53;20.40;99.90
29731;DHT22;16639;51.488;0.152;2023-08-17T09:57:22;20.40;99.90
29731;DHT22;16639;51.488;0.152;2023-08-17T09:59:51;20.40;99.90
29731;DHT22;16639;51.488;0.152;2023-08-17T10:02:23;20.40;99.90
29731;DHT22;16639;51.488;0.152;2023-08-17T10:04:54;20.30;99.90
29731;DHT22;16639;51.488;0.152;2023-08-17T10:07:29;20.40;99.90
29731;DHT22;16639;51.488;0.152;2023-08-17T10:10:05;20.40;99.90
29731;DHT22;16639;51.488;0.152;2023-08-17T10:12:44;20.40;99.90
29731;DHT22;16639;51.488;0.152;2023-08-17T10:15:15;20.50;99.90
29731;DHT22;16639;51.488;0.152;2023-08-17T10:20:45;20.60;99.90
29731;DHT22;16639;51.488;0.152;2023-08-17T10:23:17;20.60;99.90
29731;DHT22;16639;51.488;0.152;2023-08-17T10:25:47;20.60;99.90
29731;DHT22;16639;51.488;0.152;2023-08-17T10:28:18;20.70;99.90
29731;DHT22;16639;51.488;0.152;2023-08-17T10:30:46;20.70;99.90
29731;DHT22;16639;51.488;0.152;2023-08-17T10:33:15;20.30;99.90
29731;DHT22;16639;51.488;0.152;2023-08-17T10:35:43;20.80;99.90
29731;DHT22;16639;51.488;0.152;2023-08-17T10:38:11;20.80;99.90
29731;DHT22;16639;51.488;0.152;2023-08-17T10:40:41;21.60;99.90
29731;DHT22;16639;51.488;0.152;2023-08-17T10:43:09;20.90;99.90
29731;DHT22;16639;51.488;0.152;2023-08-17T10:45:38;21.00;99.90
29731;DHT22;16639;51.488;0.152;2023-08-17T10:50:38;21.10;99.90
29731;DHT22;16639;51.488;0.152;2023-08-17T10:53:12;21.10;99.90
29731;DHT22;16639;51.488;0.152;2023-08-17T10:55:42;21.10;99.90
29731;DHT22;16639;51.488;0.152;2023-08-17T10:58:11;21.00;99.90
29731;DHT22;16639;51.488;0.152;2023-08-17T11:00:42;21.00;99.90
29731;DHT22;16639;51.488;0.152;2023-08-17T11:03:19;21.00;99.90
29731;DHT22;16639;51.488;0.152;2023-08-17T11:06:16;21.00;99.90
29731;DHT22;16639;51.488;0.152;2023-08-17T11:08:55;21.00;99.90
29731;DHT22;16639;51.488;0.152;2023-08-17T11:11:23;20.90;99.90
29731;DHT22;16639;51.488;0.152;2023-08-17T11:13:52;20.90;99.90
29731;DHT22;16639;51.488;0.152;2023-08-17T11:16:23;21.00;99.90
29731;DHT22;16639;51.488;0.152;2023-08-17T11:18:52;20.90;99.90
29731;DHT22;16639;51.488;0.152;2023-08-17T11:21:19;21.00;99.90
29731;DHT22;16639;51.488;0.152;2023-08-17T11:23:47;21.00;99.90
29731;DHT22;16639;51.488;0.152;2023-08-17T11:26:16;21.00;99.90
29731;DHT22;16639;51.488;0.152;2023-08-17T11:28:44;21.00;99.90
29731;DHT22;16639;51.488;0.152;2023-08-17T11:31:13;21.00;99.90
29731;DHT22;16639;51.488;0.152;2023-08-17T11:33:43;21.10;99.90
29731;DHT22;16639;51.488;0.152;2023-08-17T11:36:12;21.20;99.90
29731;DHT22;16639;51.488;0.152;2023-08-17T11:38:41;21.30;99.90
29731;DHT22;16639;51.488;0.152;2023-08-17T11:41:10;21.30;99.90
29731;DHT22;16639;51.488;0.152;2023-08-17T11:43:45;21.30;99.90
29731;DHT22;16639;51.488;0.152;2023-08-17T11:46:15;21.40;99.90
29731;DHT22;16639;51.488;0.152;2023-08-17T11:48:42;21.30;99.90
29731;DHT22;16639;51.488;0.152;2023-08-17T11:51:10;21.40;99.90
29731;DHT22;16639;51.488;0.152;2023-08-17T11:53:39;21.30;99.90
29731;DHT22;16639;51.488;0.152;2023-08-17T11:56:07;21.30;99.90
29731;DHT22;16639;51.488;0.152;2023-08-17T11:58:45;21.30;99.90
29731;DHT22;16639;51.488;0.152;2023-08-17T12:01:13;21.30;99.90
29731;DHT22;16639;51.488;0.152;2023-08-17T12:03:43;21.40;99.90
29731;DHT22;16639;51.488;0.152;2023-08-17T12:06:11;21.40;99.90
29731;DHT22;16639;51.488;0.152;2023-08-17T12:08:45;21.50;99.90
29731;DHT22;16639;51.488;0.152;2023-08-17T12:11:16;21.50;99.90
29731;DHT22;16639;51.488;0.152;2023-08-17T12:13:52;21.60;99.90
29731;DHT22;16639;51.488;0.152;2023-08-17T12:16:20;21.60;99.90
29731;DHT22;16639;51.488;0.152;2023-08-17T12:18:49;21.60;99.90
29731;DHT22;16639;51.488;0.152;2023-08-17T12:21:20;21.80;99.90
29731;DHT22;16639;51.488;0.152;2023-08-17T12:23:49;21.80;99.90
29731;DHT22;16639;51.488;0.152;2023-08-17T12:26:20;21.80;99.90
29731;DHT22;16639;51.488;0.152;2023-08-17T12:28:49;21.80;99.90
29731;DHT22;16639;51.488;0.152;2023-08-17T12:31:21;21.90;99.90
29731;DHT22;16639;51.488;0.152;2023-08-17T12:33:50;21.90;99.90
29731;DHT22;16639;51.488;0.152;2023-08-17T12:36:18;22.00;99.90
29731;DHT22;16639;51.488;0.152;2023-08-17T12:38:47;22.00;99.90
29731;DHT22;16639;51.488;0.152;2023-08-17T12:41:15;22.00;99.90
29731;DHT22;16639;51.488;0.152;2023-08-17T12:43:43;22.00;99.90
29731;DHT22;16639;51.488;0.152;2023-08-17T12:46:13;22.00;99.90
29731;DHT22;16639;51.488;0.152;2023-08-17T12:48:41;21.10;99.90
29731;DHT22;16639;51.488;0.152;2023-08-17T12:51:08;22.00;99.90
29731;DHT22;16639;51.488;0.152;2023-08-17T12:53:37;22.00;99.90
29731;DHT22;16639;51.488;0.152;2023-08-17T12:56:04;22.00;99.90
29731;DHT22;16639;51.488;0.152;2023-08-17T12:58:32;21.90;99.90
29731;DHT22;16639;51.488;0.152;2023-08-17T13:00:59;21.90;99.90
29731;DHT22;16639;51.488;0.152;2023-08-17T13:03:27;22.00;99.90
29731;DHT22;16639;51.488;0.152;2023-08-17T13:05:54;22.00;99.90
29731;DHT22;16639;51.488;0.152;2023-08-17T13:08:22;22.00;99.90
29731;DHT22;16639;51.488;0.152;2023-08-17T13:10:49;21.80;99.90
29731;DHT22;16639;51.488;0.152;2023-08-17T13:13:17;22.10;99.90
29731;DHT22;16639;51.488;0.152;2023-08-17T13:15:45;22.10;99.90
29731;DHT22;16639;51.488;0.152;2023-08-17T13:18:12;22.20;99.90
29731;DHT22;16639;51.488;0.152;2023-08-17T13:20:40;22.30;99.90
29731;DHT22;16639;51.488;0.152;2023-08-17T13:23:07;22.30;99.90
29731;DHT22;16639;51.488;0.152;2023-08-17T13:25:35;22.30;99.90
29731;DHT22;16639;51.488;0.152;2023-08-17T13:28:03;22.40;99.90
29731;DHT22;16639;51.488;0.152;2023-08-17T13:30:30;22.50;99.90
29731;DHT22;16639;51.488;0.152;2023-08-17T13:32:58;22.60;99.90
29731;DHT22;16639;51.488;0.152;2023-08-17T13:35:25;22.60;99.90
29731;DHT22;16639;51.488;0.152;2023-08-17T13:37:53;22.60;99.90
29731;DHT22;16639;51.488;0.152;2023-08-17T13:40:25;22.50;99.90
29731;DHT22;16639;51.488;0.152;2023-08-17T13:42:52;22.60;99.90
29731;DHT22;16639;51.488;0.152;2023-08-17T13:45:20;22.50;99.90
29731;DHT22;16639;51.488;0.152;2023-08-17T13:47:48;22.50;99.90
29731;DHT22;16639;51.488;0.152;2023-08-17T13:50:16;22.50;99.90
29731;DHT22;16639;51.488;0.152;2023-08-17T13:52:45;22.40;99.90
29731;DHT22;16639;51.488;0.152;2023-08-17T13:55:16;22.50;99.90
29731;DHT22;16639;51.488;0.152;2023-08-17T13:57:44;22.40;99.90
29731;DHT22;16639;51.488;0.152;2023-08-17T14:00:12;22.40;99.90
29731;DHT22;16639;51.488;0.152;2023-08-17T14:02:40;22.30;99.90
29731;DHT22;16639;51.488;0.152;2023-08-17T14:05:07;22.30;99.90
29731;DHT22;16639;51.488;0.152;2023-08-17T14:07:35;22.30;99.90
29731;DHT22;16639;51.488;0.152;2023-08-17T14:10:02;22.20;99.90
29731;DHT22;16639;51.488;0.152;2023-08-17T14:12:40;22.10;99.90
29731;DHT22;16639;51.488;0.152;2023-08-17T14:15:07;22.10;99.90
29731;DHT22;16639;51.488;0.152;2023-08-17T14:17:35;22.00;99.90
29731;DHT22;16639;51.488;0.152;2023-08-17T14:20:02;22.00;99.90
29731;DHT22;16639;51.488;0.152;2023-08-17T14:22:31;21.90;99.90
29731;DHT22;16639;51.488;0.152;2023-08-17T14:24:59;21.80;99.90
29731;DHT22;16639;51.488;0.152;2023-08-17T14:27:26;21.80;99.90
29731;DHT22;16639;51.488;0.152;2023-08-17T14:29:55;21.80;99.90
29731;DHT22;16639;51.488;0.152;2023-08-17T14:32:22;21.70;99.90
29731;DHT22;16639;51.488;0.152;2023-08-17T14:34:50;21.70;99.90
29731;DHT22;16639;51.488;0.152;2023-08-17T14:37:18;21.70;99.90
29731;DHT22;16639;51.488;0.152;2023-08-17T14:39:51;21.70;99.90
29731;DHT22;16639;51.488;0.152;2023-08-17T14:42:19;21.60;99.90
29731;DHT22;16639;51.488;0.152;2023-08-17T14:44:47;21.60;99.90
29731;DHT22;16639;51.488;0.152;2023-08-17T14:47:14;21.50;99.90
29731;DHT22;16639;51.488;0.152;2023-08-17T14:49:46;21.50;99.90
29731;DHT22;16639;51.488;0.152;2023-08-17T14:52:14;21.50;99.90
29731;DHT22;16639;51.488;0.152;2023-08-17T14:54:41;21.50;99.90
29731;DHT22;16639;51.488;0.152;2023-08-17T14:57:09;21.60;99.90
29731;DHT22;16639;51.488;0.152;2023-08-17T14:59:37;21.60;99.90
29731;DHT22;16639;51.488;0.152;2023-08-17T15:02:04;21.60;99.90
29731;DHT22;16639;51.488;0.152;2023-08-17T15:04:32;21.60;99.90
29731;DHT22;16639;51.488;0.152;2023-08-17T15:07:00;21.60;99.90
29731;DHT22;16639;51.488;0.152;2023-08-17T15:09:27;21.60;99.90
29731;DHT22;16639;51.488;0.152;2023-08-17T15:11:55;21.60;99.90
29731;DHT22;16639;51.488;0.152;2023-08-17T15:14:22;21.50;99.90
29731;DHT22;16639;51.488;0.152;2023-08-17T15:16:49;21.60;99.90
29731;DHT22;16639;51.488;0.152;2023-08-17T15:19:17;21.60;99.90
29731;DHT22;16639;51.488;0.152;2023-08-17T15:22:04;21.50;99.90
29731;DHT22;16639;51.488;0.152;2023-08-17T15:24:31;21.50;99.90
29731;DHT22;16639;51.488;0.152;2023-08-17T15:26:59;21.50;99.90
29731;DHT22;16639;51.488;0.152;2023-08-17T15:29:26;21.50;99.90
29731;DHT22;16639;51.488;0.152;2023-08-17T15:31:54;21.50;99.90
29731;DHT22;16639;51.488;0.152;2023-08-17T15:34:21;21.50;99.90
29731;DHT22;16639;51.488;0.152;2023-08-17T15:36:49;21.60;99.90
29731;DHT22;16639;51.488;0.152;2023-08-17T15:39:16;21.60;99.90
29731;DHT22;16639;51.488;0.152;2023-08-17T15:41:44;21.60;99.90
29731;DHT22;16639;51.488;0.152;2023-08-17T15:44:11;21.50;99.90
29731;DHT22;16639;51.488;0.152;2023-08-17T15:46:39;21.60;99.90